Time;durP1;ratioP1;P1;durP2;ratioP2;P2;SDS_P1;SDS_P2;PMS_P1;PMS_P2;Temp;Humidity;BMP_temperature;BMP_pressure;BME280_temperature;BME280_humidity;BME280_pressure;Samples;Min_cycle;Max_cycle;Signal;HPM_P1;HPM_P2
2021/12/10 00:01:07;;;;;;;88.83;39.70;;;;;;;2.34;88.14;100105.81;5032390;28;20462;-43
2021/12/10 00:03:39;;;;;;;88.47;39.73;;;;;;;2.33;88.05;100109.47;5031647;28;20428;-43
2021/12/10 00:06:11;;;;;;;92.53;44.20;;;;;;;2.32;87.66;100105.19;5032479;28;20839;-42
2021/12/10 00:08:42;;;;;;;99.17;42.80;;;;;;;2.29;87.61;100098.44;5032291;28;20425;-43
2021/12/10 00:11:14;;;;;;;95.83;43.40;;;;;;;2.26;87.38;100090.84;5032220;28;20958;-41
2021/12/10 00:13:44;;;;;;;81.53;43.40;;;;;;;2.24;87.08;100085.72;5031598;28;20428;-43
2021/12/10 00:16:15;;;;;;;80.17;39.70;;;;;;;2.23;86.93;100078.03;5032229;28;20452;-42
2021/12/10 00:18:50;;;;;;;94.33;42.60;;;;;;;2.24;86.66;100082.28;5032311;28;20476;-44
2021/12/10 00:21:18;;;;;;;85.87;43.90;;;;;;;2.20;86.94;100073.06;5032086;28;20458;-43
2021/12/10 00:23:49;;;;;;;93.60;40.57;;;;;;;2.21;86.69;100080.78;5031334;28;20955;-42
2021/12/10 00:26:20;;;;;;;82.13;38.63;;;;;;;2.20;86.36;100078.34;5032061;28;20425;-44
2021/12/10 00:28:49;;;;;;;93.30;42.97;;;;;;;2.16;86.43;100079.63;5032042;28;20450;-43
2021/12/10 00:31:31;;;;;;;90.97;41.80;;;;;;;2.16;86.48;100074.38;5032112;28;20448;-42
2021/12/10 00:34:04;;;;;;;97.77;44.07;;;;;;;2.17;86.10;100070.75;5031312;28;20464;-44
2021/12/10 00:36:33;;;;;;;95.83;43.80;;;;;;;2.16;85.97;100067.31;5031999;28;20439;-44
2021/12/10 00:39:03;;;;;;;90.90;40.23;;;;;;;2.17;85.88;100068.13;5028549;28;20472;-41
2021/12/10 00:41:31;;;;;;;101.57;42.13;;;;;;;2.17;85.82;100070.75;5023434;28;20466;-44
2021/12/10 00:43:58;;;;;;;91.70;39.70;;;;;;;2.14;86.61;100061.38;5031360;28;20460;-43
2021/12/10 00:46:27;;;;;;;91.23;41.80;;;;;;;2.15;85.99;100056.97;5031884;28;20436;-42
2021/12/10 00:48:55;;;;;;;98.57;43.17;;;;;;;2.16;86.33;100051.53;5031851;28;20790;-42
2021/12/10 00:51:23;;;;;;;87.90;42.20;;;;;;;2.17;86.58;100047.09;5031611;28;20452;-41
2021/12/10 00:53:52;;;;;;;81.97;39.87;;;;;;;2.18;86.37;100041.66;5030990;28;21232;-43
2021/12/10 00:56:20;;;;;;;83.93;39.97;;;;;;;2.17;86.81;100052.34;5031856;28;20432;-41
2021/12/10 00:58:48;;;;;;;88.87;42.77;;;;;;;2.19;86.55;100050.38;5031671;28;20436;-43
2021/12/10 01:01:18;;;;;;;90.67;40.97;;;;;;;2.17;86.87;100041.81;5031678;28;20514;-42
2021/12/10 01:03:51;;;;;;;78.67;41.53;;;;;;;2.14;87.04;100042.97;5030924;28;20455;-43
2021/12/10 01:06:21;;;;;;;94.23;42.47;;;;;;;2.15;86.88;100033.28;5032048;28;20470;-43
2021/12/10 01:08:55;;;;;;;92.10;44.23;;;;;;;2.17;86.44;100042.66;5031792;28;20442;-42
2021/12/10 01:11:27;;;;;;;83.13;39.37;;;;;;;2.16;86.59;100038.38;5031637;28;20451;-42
2021/12/10 01:14:03;;;;;;;88.80;42.83;;;;;;;2.20;86.74;100031.81;5030922;28;20466;-42
2021/12/10 01:25:06;;;;;;;82.63;43.60;;;;;;;2.17;87.31;100039.19;5031029;28;20472;-42
2021/12/10 01:27:37;;;;;;;86.10;40.20;;;;;;;2.16;87.52;100037.53;5031465;28;20435;-44
2021/12/10 01:30:12;;;;;;;83.70;40.53;;;;;;;2.16;87.22;100030.47;5031373;28;20972;-45
2021/12/10 01:32:49;;;;;;;87.33;40.67;;;;;;;2.12;87.02;100033.59;5031174;28;20431;-44
2021/12/10 01:35:22;;;;;;;81.53;41.30;;;;;;;2.13;87.18;100029.97;5030875;28;20984;-43
2021/12/10 01:37:51;;;;;;;91.57;39.10;;;;;;;2.13;86.99;100029.97;5030727;28;20439;-43
2021/12/10 01:40:21;;;;;;;87.20;40.37;;;;;;;2.15;87.06;100025.41;5021745;28;20472;-42
2021/12/10 01:42:52;;;;;;;89.53;41.13;;;;;;;2.16;86.85;100011.25;5034695;28;20424;-42
2021/12/10 01:45:23;;;;;;;75.17;40.20;;;;;;;2.18;86.80;100019.81;5034492;28;20514;-42
2021/12/10 01:47:57;;;;;;;78.97;40.30;;;;;;;2.19;86.71;100016.19;5034700;28;20977;-42
2021/12/10 01:50:27;;;;;;;81.93;39.03;;;;;;;2.15;87.35;100015.66;5034898;28;20828;-44
2021/12/10 01:52:58;;;;;;;91.07;43.53;;;;;;;2.16;87.33;100003.34;5034653;28;20436;-42
2021/12/10 01:55:29;;;;;;;71.50;36.50;;;;;;;2.19;87.00;100003.84;5034363;28;20852;-41
2021/12/10 01:57:58;;;;;;;81.83;40.10;;;;;;;2.21;87.05;99995.81;5034679;28;20436;-42
2021/12/10 02:00:29;;;;;;;80.40;37.97;;;;;;;2.19;87.21;99998.59;5034494;28;20482;-43
2021/12/10 02:02:57;;;;;;;74.80;37.60;;;;;;;2.20;87.57;99999.41;5034419;28;20488;-46
2021/12/10 02:05:27;;;;;;;76.40;38.13;;;;;;;2.25;87.01;99994.50;5034010;28;20468;-41
2021/12/10 02:07:55;;;;;;;86.97;39.40;;;;;;;2.23;87.69;99992.03;5034566;28;20430;-42
2021/12/10 02:10:24;;;;;;;69.20;36.80;;;;;;;2.23;87.78;99992.03;5034313;28;20428;-42
2021/12/10 02:12:51;;;;;;;82.33;40.10;;;;;;;2.24;87.99;99990.19;5034078;28;20803;-42
2021/12/10 02:15:21;;;;;;;82.70;37.60;;;;;;;2.25;87.79;99991.84;5033929;28;20850;-42
2021/12/10 02:17:52;;;;;;;77.10;36.63;;;;;;;2.29;87.82;99987.09;5034570;28;20763;-44
2021/12/10 02:20:22;;;;;;;80.87;36.77;;;;;;;2.27;87.59;99983.81;5034299;28;20816;-46
2021/12/10 02:22:52;;;;;;;69.53;38.07;;;;;;;2.27;88.38;99984.63;5034088;28;20471;-47
2021/12/10 02:25:23;;;;;;;79.40;38.23;;;;;;;2.28;88.32;99973.13;5033712;28;21183;-45
2021/12/10 02:27:51;;;;;;;78.80;39.33;;;;;;;2.27;88.55;99979.34;5034103;28;20434;-42
2021/12/10 02:30:20;;;;;;;75.70;38.73;;;;;;;2.28;88.49;99978.38;5033980;28;20438;-43
2021/12/10 02:32:48;;;;;;;63.70;33.97;;;;;;;2.31;88.40;99971.97;5033796;28;20432;-43
2021/12/10 02:35:17;;;;;;;82.57;38.33;;;;;;;2.29;88.66;99977.41;5033548;28;21011;-42
2021/12/10 02:37:47;;;;;;;74.13;38.07;;;;;;;2.30;88.72;99975.59;5033664;28;20424;-45
2021/12/10 02:40:19;;;;;;;72.43;38.30;;;;;;;2.30;88.64;99963.25;5023137;28;20834;-45
2021/12/10 02:42:49;;;;;;;67.47;35.40;;;;;;;2.33;88.30;99962.13;5034211;28;20447;-46
2021/12/10 02:45:20;;;;;;;77.77;36.80;;;;;;;2.31;88.75;99961.44;5033570;28;20461;-43
2021/12/10 02:47:48;;;;;;;67.80;35.47;;;;;;;2.30;89.16;99952.72;5033853;28;20427;-45
2021/12/10 02:50:20;;;;;;;69.80;37.17;;;;;;;2.29;88.91;99959.00;5033360;28;20420;-45
2021/12/10 02:52:48;;;;;;;66.43;37.10;;;;;;;2.30;88.92;99954.56;5033449;28;20431;-46
2021/12/10 02:55:18;;;;;;;73.33;36.60;;;;;;;2.30;88.55;99952.72;5033249;28;20456;-45
2021/12/10 02:57:48;;;;;;;74.10;38.70;;;;;;;2.32;88.84;99950.78;5033653;28;20439;-47
2021/12/10 03:00:21;;;;;;;67.33;38.17;;;;;;;2.35;88.55;99945.19;5033387;28;20554;-43
2021/12/10 03:02:50;;;;;;;69.30;36.50;;;;;;;2.37;88.31;99945.84;5033106;28;20425;-42
2021/12/10 03:05:18;;;;;;;74.73;36.73;;;;;;;2.35;88.98;99936.47;5032955;28;20472;-42
2021/12/10 03:07:46;;;;;;;69.63;34.93;;;;;;;2.37;88.67;99937.94;5033458;28;20440;-41
2021/12/10 03:10:18;;;;;;;77.73;34.60;;;;;;;2.36;88.76;99936.28;5033387;28;20443;-44
2021/12/10 03:12:46;;;;;;;70.10;36.07;;;;;;;2.40;88.73;99939.41;5033126;28;20439;-43
2021/12/10 03:15:16;;;;;;;68.87;33.83;;;;;;;2.38;89.30;99925.63;5032490;28;20981;-41
2021/12/10 03:17:45;;;;;;;65.70;36.03;;;;;;;2.34;89.45;99925.13;5032984;28;20432;-44
2021/12/10 03:20:16;;;;;;;67.47;34.27;;;;;;;2.37;89.18;99929.22;5032974;28;20843;-42
2021/12/10 03:22:43;;;;;;;64.20;35.27;;;;;;;2.36;89.65;99932.88;5032891;28;20425;-42
2021/12/10 03:25:14;;;;;;;70.97;36.60;;;;;;;2.34;89.30;99919.84;5032488;28;21038;-42
2021/12/10 03:27:44;;;;;;;77.37;39.17;;;;;;;2.27;89.09;99921.47;5032823;28;20431;-43
2021/12/10 03:30:16;;;;;;;75.47;37.60;;;;;;;2.30;88.93;99930.88;5032726;28;20436;-43
2021/12/10 03:32:45;;;;;;;77.23;34.70;;;;;;;2.30;88.98;99920.34;5032411;28;20934;-43
2021/12/10 03:35:16;;;;;;;65.67;37.40;;;;;;;2.28;89.14;99922.31;5032224;28;20468;-42
2021/12/10 03:37:45;;;;;;;78.03;37.40;;;;;;;2.26;89.13;99919.84;5032719;28;20428;-42
2021/12/10 03:40:17;;;;;;;83.10;38.03;;;;;;;2.23;88.96;99909.66;5018840;28;20443;-43
2021/12/10 03:42:48;;;;;;;69.53;37.57;;;;;;;2.22;88.87;99915.91;5032595;28;20436;-41
2021/12/10 03:45:17;;;;;;;75.47;37.87;;;;;;;2.20;88.50;99921.34;5032042;28;20989;-44
2021/12/10 03:47:46;;;;;;;60.77;34.57;;;;;;;2.22;88.56;99914.09;5032426;28;20952;-43
2021/12/10 03:50:23;;;;;;;75.43;37.30;;;;;;;2.20;88.30;99918.72;5032381;28;20463;-44
2021/12/10 03:52:51;;;;;;;85.57;39.07;;;;;;;2.21;88.11;99916.91;5032080;28;20439;-46
2021/12/10 03:55:21;;;;;;;77.20;36.53;;;;;;;2.18;88.23;99917.22;5031803;28;20464;-45
2021/12/10 03:57:52;;;;;;;81.70;37.83;;;;;;;2.18;87.72;99914.59;5032416;28;20436;-45
2021/12/10 04:00:24;;;;;;;74.07;34.63;;;;;;;2.18;87.72;99927.75;5032103;28;20439;-46
2021/12/10 04:02:52;;;;;;;72.37;37.13;;;;;;;2.19;87.24;99924.13;5031375;28;20795;-44
2021/12/10 04:05:21;;;;;;;71.30;35.47;;;;;;;2.17;87.72;99920.84;5031357;28;20478;-44
2021/12/10 04:07:48;;;;;;;77.50;38.77;;;;;;;2.18;87.70;99927.75;5032191;28;20436;-43
2021/12/10 04:10:19;;;;;;;71.47;38.10;;;;;;;2.19;87.46;99916.22;5032259;28;20539;-45
2021/12/10 04:12:47;;;;;;;78.50;38.87;;;;;;;2.15;87.48;99917.56;5032031;28;20432;-46
2021/12/10 04:15:20;;;;;;;72.30;37.27;;;;;;;2.14;87.55;99919.34;5031423;28;20795;-46
2021/12/10 04:17:49;;;;;;;84.23;38.90;;;;;;;2.16;86.98;99916.56;5031949;28;20430;-45
2021/12/10 04:20:18;;;;;;;78.03;40.00;;;;;;;2.14;87.48;99910.63;5031927;28;20436;-46
2021/12/10 04:22:47;;;;;;;69.87;40.07;;;;;;;2.14;87.44;99915.91;5031832;28;20472;-45
2021/12/10 04:25:17;;;;;;;70.83;36.70;;;;;;;2.14;87.00;99916.72;5031471;28;20467;-50
2021/12/10 04:27:47;;;;;;;68.83;35.80;;;;;;;2.08;87.31;99912.13;5031951;28;20436;-44
2021/12/10 04:30:17;;;;;;;71.37;38.77;;;;;;;2.08;86.93;99916.53;5031555;28;20436;-43
2021/12/10 04:32:45;;;;;;;73.40;39.20;;;;;;;2.08;86.65;99904.22;5031856;28;21019;-44
2021/12/10 04:35:14;;;;;;;73.47;39.27;;;;;;;2.07;86.84;99909.63;5031387;28;21029;-44
2021/12/10 04:37:42;;;;;;;86.87;39.20;;;;;;;2.07;86.52;99907.84;5031705;28;20925;-44
2021/12/10 04:40:17;;;;;;;78.43;38.90;;;;;;;2.04;86.66;99909.94;5017416;28;20444;-45
2021/12/10 04:42:46;;;;;;;82.67;38.67;;;;;;;2.04;85.57;99908.16;5031459;28;20488;-43
2021/12/10 04:45:17;;;;;;;86.57;38.63;;;;;;;2.02;85.56;99914.56;5031279;28;20472;-46
2021/12/10 04:47:46;;;;;;;64.93;34.93;;;;;;;2.00;85.33;99906.81;5031878;28;20451;-44
2021/12/10 04:50:16;;;;;;;77.33;37.60;;;;;;;1.96;85.22;99902.06;5031515;28;20440;-44
2021/12/10 04:52:43;;;;;;;81.70;41.03;;;;;;;1.95;84.85;99903.03;5024675;28;20443;-45
2021/12/10 04:55:13;;;;;;;89.53;39.50;;;;;;;1.96;84.28;99897.63;5022137;28;20460;-45
2021/12/10 04:57:41;;;;;;;74.57;37.40;;;;;;;1.95;84.41;99897.78;5031555;28;20428;-44
2021/12/10 05:00:13;;;;;;;94.40;42.23;;;;;;;1.95;84.31;99905.66;5030990;28;20436;-47
2021/12/10 05:02:44;;;;;;;74.93;39.60;;;;;;;1.95;84.16;99908.28;5030324;28;20478;-46
2021/12/10 05:05:13;;;;;;;75.30;38.90;;;;;;;1.95;84.46;99906.50;5031046;28;20460;-44
2021/12/10 05:07:41;;;;;;;88.87;41.00;;;;;;;1.96;84.16;99904.69;5031380;28;20443;-45
2021/12/10 05:10:16;;;;;;;73.77;40.07;;;;;;;1.96;83.60;99907.31;5031601;28;20467;-45
2021/12/10 05:12:44;;;;;;;101.43;40.17;;;;;;;1.96;83.85;99908.16;5031423;28;20426;-44
2021/12/10 05:15:16;;;;;;;72.87;39.30;;;;;;;1.97;83.94;99901.09;5031588;28;20490;-44
2021/12/10 05:17:45;;;;;;;80.97;39.30;;;;;;;1.96;83.75;99905.53;5035399;28;20747;-45
2021/12/10 05:20:16;;;;;;;74.17;38.80;;;;;;;1.98;83.73;99905.34;5034960;28;20547;-46
2021/12/10 05:22:46;;;;;;;84.17;38.40;;;;;;;2.00;83.12;99908.66;5035088;28;20479;-47
2021/12/10 05:25:15;;;;;;;84.70;38.70;;;;;;;1.95;83.69;99897.78;5034646;28;20474;-46
2021/12/10 05:27:44;;;;;;;89.90;40.67;;;;;;;1.97;83.25;99896.63;5035042;28;20758;-44
2021/12/10 05:30:16;;;;;;;84.17;41.50;;;;;;;2.01;82.84;99889.25;5034972;28;20453;-46
2021/12/10 05:32:45;;;;;;;79.60;38.83;;;;;;;2.00;83.16;99888.41;5034742;28;20421;-47
2021/12/10 05:35:13;;;;;;;76.73;39.90;;;;;;;1.99;83.29;99881.53;5034435;28;20456;-44
2021/12/10 05:37:40;;;;;;;78.70;37.10;;;;;;;1.97;83.24;99872.97;5034988;28;20427;-46
2021/12/10 05:40:12;;;;;;;75.77;37.33;;;;;;;1.99;83.67;99878.06;5023515;28;20443;-44
2021/12/10 05:42:40;;;;;;;72.13;36.40;;;;;;;2.00;83.09;99869.22;5034521;28;20809;-43
2021/12/10 05:45:10;;;;;;;64.43;38.63;;;;;;;1.99;83.37;99863.13;5034155;28;20464;-48
2021/12/10 05:47:38;;;;;;;82.67;37.93;;;;;;;1.99;83.41;99862.28;5034929;28;20432;-44
2021/12/10 05:50:10;;;;;;;70.37;37.43;;;;;;;2.01;83.21;99863.78;5034753;28;20459;-43
2021/12/10 05:52:38;;;;;;;69.83;37.13;;;;;;;2.00;83.82;99856.06;5034372;28;20428;-43
2021/12/10 05:55:07;;;;;;;70.83;38.00;;;;;;;2.00;83.98;99846.34;5034162;28;20474;-45
2021/12/10 05:57:35;;;;;;;71.37;40.43;;;;;;;2.01;83.84;99853.25;5034327;28;20783;-44
2021/12/10 06:00:05;;;;;;;66.77;36.27;;;;;;;2.02;84.24;99847.03;5034449;28;20436;-44
2021/12/10 06:02:33;;;;;;;73.00;38.77;;;;;;;2.03;84.09;99848.66;5034183;28;20484;-44
2021/12/10 06:05:01;;;;;;;81.20;39.83;;;;;;;2.01;84.83;99844.53;5034025;28;20472;-44
2021/12/10 06:07:30;;;;;;;71.63;34.90;;;;;;;1.99;85.59;99839.47;5034287;28;20433;-45
2021/12/10 06:09:58;;;;;;;78.47;37.10;;;;;;;1.96;85.61;99838.97;5034281;28;20802;-42
2021/12/10 06:12:25;;;;;;;67.93;37.73;;;;;;;1.99;84.93;99836.84;5034073;28;21021;-42
2021/12/10 06:14:57;;;;;;;71.33;37.03;;;;;;;1.95;85.43;99834.69;5033838;28;20464;-45
2021/12/10 06:17:24;;;;;;;63.47;35.63;;;;;;;1.92;84.69;99827.94;5034086;28;20519;-44
2021/12/10 06:19:52;;;;;;;79.53;37.63;;;;;;;1.94;84.38;99828.59;5034187;28;20440;-44
2021/12/10 06:22:20;;;;;;;76.23;36.57;;;;;;;1.97;83.60;99823.00;5033858;28;20985;-43
2021/12/10 06:24:49;;;;;;;73.73;36.93;;;;;;;1.96;84.01;99828.44;5033372;28;20551;-44
2021/12/10 06:27:16;;;;;;;71.07;37.07;;;;;;;1.99;83.68;99833.38;5033735;28;20439;-46
2021/12/10 06:29:44;;;;;;;70.00;38.30;;;;;;;1.99;84.08;99822.84;5034213;28;20438;-44
2021/12/10 06:32:12;;;;;;;69.43;36.77;;;;;;;1.99;84.52;99833.38;5033931;28;20448;-48
2021/12/10 06:34:39;;;;;;;68.83;37.20;;;;;;;1.98;84.41;99823.84;5033149;28;20547;-48
2021/12/10 06:37:07;;;;;;;66.23;36.47;;;;;;;1.98;84.79;99818.56;5033829;28;20776;-43
2021/12/10 06:39:35;;;;;;;62.10;34.20;;;;;;;1.93;84.84;99820.88;5027005;28;20437;-46
2021/12/10 06:42:05;;;;;;;77.73;38.10;;;;;;;1.90;84.83;99822.03;5029547;28;20479;-42
2021/12/10 06:44:44;;;;;;;86.10;37.40;;;;;;;1.88;84.22;99825.81;5033169;28;20460;-44
2021/12/10 06:47:11;;;;;;;63.67;36.40;;;;;;;1.90;83.41;99824.66;5033689;28;20776;-45
2021/12/10 06:49:39;;;;;;;67.40;34.60;;;;;;;1.91;83.46;99820.22;5033493;28;20536;-47
2021/12/10 06:52:07;;;;;;;68.03;33.87;;;;;;;1.86;83.08;99825.97;5033323;28;20462;-42
2021/12/10 06:54:35;;;;;;;70.33;36.73;;;;;;;1.88;82.91;99828.44;5032977;28;20838;-44
2021/12/10 06:57:03;;;;;;;65.00;37.60;;;;;;;1.89;82.51;99823.00;5033547;28;20628;-43
2021/12/10 06:59:32;;;;;;;67.13;34.73;;;;;;;1.94;81.62;99825.16;5033513;28;20474;-44
2021/12/10 07:02:01;;;;;;;60.90;33.47;;;;;;;1.91;82.45;99826.28;5033263;28;20478;-43
2021/12/10 07:04:29;;;;;;;65.17;35.40;;;;;;;1.90;83.48;99823.84;5032539;28;20562;-45
2021/12/10 07:06:56;;;;;;;68.73;35.07;;;;;;;1.88;82.97;99818.72;5033201;28;20933;-41
2021/12/10 07:09:26;;;;;;;67.20;34.23;;;;;;;1.87;82.82;99827.63;5033152;28;20941;-45
2021/12/10 07:11:55;;;;;;;61.93;32.03;;;;;;;1.87;82.24;99824.16;5033064;28;20444;-47
2021/12/10 07:14:23;;;;;;;73.67;37.13;;;;;;;1.86;82.36;99828.59;5032538;28;20466;-44
2021/12/10 07:16:52;;;;;;;66.70;34.73;;;;;;;1.89;81.39;99824.81;5033050;28;20429;-42
2021/12/10 07:19:20;;;;;;;63.10;33.87;;;;;;;1.88;81.57;99825.81;5033213;28;20440;-44
2021/12/10 07:21:48;;;;;;;67.33;33.50;;;;;;;1.88;81.55;99829.25;5033046;28;20449;-43
2021/12/10 07:24:19;;;;;;;71.83;32.57;;;;;;;1.92;80.98;99832.38;5032189;28;20477;-44
2021/12/10 07:26:48;;;;;;;71.27;36.30;;;;;;;1.93;81.45;99832.22;5032796;28;20440;-45
2021/12/10 07:29:16;;;;;;;68.57;33.97;;;;;;;1.95;82.46;99834.69;5032674;28;20428;-44
2021/12/10 07:31:45;;;;;;;65.67;34.47;;;;;;;1.96;82.38;99829.28;5032533;28;20448;-44
2021/12/10 07:34:15;;;;;;;68.20;36.60;;;;;;;2.01;82.33;99834.03;5032002;28;20563;-42
2021/12/10 07:36:42;;;;;;;64.30;35.20;;;;;;;2.02;82.57;99831.25;5032669;28;20467;-46
2021/12/10 07:39:11;;;;;;;56.57;33.53;;;;;;;2.04;82.92;99831.91;5028085;28;20436;-45
2021/12/10 07:41:40;;;;;;;69.83;34.77;;;;;;;2.01;84.06;99836.66;5025168;28;20802;-44
2021/12/10 07:44:09;;;;;;;72.30;34.00;;;;;;;1.97;84.14;99830.88;5031844;28;20839;-44
2021/12/10 07:46:39;;;;;;;56.73;32.77;;;;;;;2.00;84.73;99835.81;5032658;28;20428;-45
2021/12/10 07:49:14;;;;;;;59.80;33.20;;;;;;;2.00;84.38;99835.81;5032439;28;20471;-43
2021/12/10 07:51:47;;;;;;;60.43;34.97;;;;;;;2.02;84.67;99838.31;5032426;28;20444;-44
2021/12/10 07:54:15;;;;;;;74.47;35.73;;;;;;;2.02;85.11;99849.66;5031507;28;20456;-42
2021/12/10 07:56:45;;;;;;;57.93;34.00;;;;;;;2.05;85.02;99836.19;5032187;28;20432;-44
2021/12/10 07:59:12;;;;;;;68.77;35.00;;;;;;;2.10;84.75;99839.13;5032453;28;20459;-45
2021/12/10 08:01:40;;;;;;;64.17;34.03;;;;;;;2.11;85.20;99843.41;5032298;28;20855;-42
2021/12/10 08:04:08;;;;;;;64.13;34.17;;;;;;;2.15;84.85;99836.81;5031557;28;20787;-43
2021/12/10 08:06:37;;;;;;;60.07;34.00;;;;;;;2.17;85.70;99832.22;5032108;28;20432;-42
2021/12/10 08:09:09;;;;;;;65.80;33.47;;;;;;;2.17;86.32;99837.50;5031737;28;20442;-45
2021/12/10 08:11:38;;;;;;;63.17;32.97;;;;;;;2.20;85.85;99837.16;5031993;28;20440;-42
2021/12/10 08:14:08;;;;;;;58.87;32.40;;;;;;;2.18;87.25;99833.06;5031530;28;20484;-42
2021/12/10 08:16:36;;;;;;;51.00;30.73;;;;;;;2.23;86.85;99838.63;5032054;28;20427;-42
2021/12/10 08:19:04;;;;;;;63.10;33.97;;;;;;;2.25;86.73;99834.03;5031893;28;20429;-42
2021/12/10 08:21:32;;;;;;;59.97;33.90;;;;;;;2.22;88.29;99834.34;5031728;28;20457;-42
2021/12/10 08:24:00;;;;;;;75.53;35.07;;;;;;;2.22;88.62;99829.91;5031350;28;20470;-43
2021/12/10 08:26:29;;;;;;;65.17;32.83;;;;;;;2.27;88.56;99839.94;5032008;28;20444;-43
2021/12/10 08:28:57;;;;;;;68.63;35.77;;;;;;;2.26;89.03;99846.19;5031894;28;20442;-42
2021/12/10 08:31:24;;;;;;;73.10;37.67;;;;;;;2.26;89.15;99838.31;5031793;28;20448;-43
2021/12/10 08:33:52;;;;;;;59.03;33.90;;;;;;;2.25;89.81;99834.03;5031069;28;20483;-43
2021/12/10 08:36:22;;;;;;;70.33;32.70;;;;;;;2.20;90.27;99841.59;5031977;28;20428;-43
2021/12/10 08:38:51;;;;;;;62.03;35.80;;;;;;;2.19;89.73;99835.50;5028666;28;20447;-45
2021/12/10 08:41:26;;;;;;;65.93;31.70;;;;;;;2.16;89.52;99837.66;5023832;28;20794;-42
2021/12/10 08:43:57;;;;;;;68.63;35.90;;;;;;;2.14;89.51;99844.88;5030924;28;20467;-46
2021/12/10 08:46:26;;;;;;;56.33;32.40;;;;;;;2.14;89.21;99839.63;5031613;28;20519;-42
2021/12/10 08:48:55;;;;;;;66.03;33.30;;;;;;;2.12;89.28;99834.50;5031799;28;20468;-44
2021/12/10 08:51:27;;;;;;;59.07;32.80;;;;;;;2.14;89.03;99837.00;5035597;28;20453;-44
2021/12/10 08:53:55;;;;;;;61.33;35.00;;;;;;;2.14;89.03;99832.56;5035125;28;20464;-42
2021/12/10 08:56:23;;;;;;;63.77;33.87;;;;;;;2.14;89.03;99834.38;5035780;28;20453;-42
2021/12/10 08:58:51;;;;;;;63.20;32.70;;;;;;;2.17;88.81;99834.03;5035661;28;20439;-42
2021/12/10 09:01:24;;;;;;;57.83;34.10;;;;;;;2.20;88.97;99850.31;5035470;28;20453;-43
2021/12/10 09:03:54;;;;;;;63.23;34.63;;;;;;;2.27;88.76;99847.03;5034984;28;20525;-43
2021/12/10 09:06:24;;;;;;;62.53;34.60;;;;;;;2.33;88.42;99841.09;5035700;28;20439;-42
2021/12/10 09:08:53;;;;;;;59.47;31.70;;;;;;;2.33;89.25;99843.75;5035618;28;20435;-42
2021/12/10 09:11:21;;;;;;;57.10;33.10;;;;;;;2.38;88.96;99850.16;5035227;28;20991;-42
2021/12/10 09:14:09;;;;;;;56.17;32.60;;;;;;;2.44;89.13;99848.66;5034795;28;20463;-42
2021/12/10 09:16:39;;;;;;;55.90;32.70;;;;;;;2.49;89.07;99843.69;5035313;28;20968;-45
2021/12/10 09:19:12;;;;;;;55.83;33.97;;;;;;;2.50;90.14;99842.72;5035223;28;20435;-44
2021/12/10 09:21:41;;;;;;;61.00;33.23;;;;;;;2.55;90.29;99835.16;5035172;28;20448;-42
2021/12/10 09:24:11;;;;;;;54.90;31.13;;;;;;;2.57;90.33;99836.63;5034505;28;20800;-42
2021/12/10 09:26:43;;;;;;;55.40;31.43;;;;;;;2.59;90.64;99841.72;5035211;28;20436;-45
2021/12/10 09:29:15;;;;;;;54.43;31.60;;;;;;;2.58;91.11;99833.00;5035243;28;20435;-41
2021/12/10 09:31:45;;;;;;;73.83;34.37;;;;;;;2.61;91.13;99832.66;5034989;28;20458;-42
2021/12/10 09:34:17;;;;;;;57.63;33.43;;;;;;;2.61;91.26;99832.66;5034258;28;20460;-42
2021/12/10 09:36:47;;;;;;;57.07;32.03;;;;;;;2.54;91.82;99829.06;5035174;28;20439;-42
2021/12/10 09:39:17;;;;;;;59.63;32.23;;;;;;;2.55;91.68;99829.88;5030626;28;20989;-44
2021/12/10 09:41:46;;;;;;;57.17;33.17;;;;;;;2.58;91.41;99819.84;5028302;28;20455;-43
2021/12/10 09:44:15;;;;;;;59.40;35.30;;;;;;;2.64;91.20;99829.69;5034136;28;20827;-42
2021/12/10 09:46:46;;;;;;;60.10;36.37;;;;;;;2.67;91.33;99826.72;5034749;28;20440;-42
2021/12/10 09:49:14;;;;;;;68.77;33.93;;;;;;;2.64;91.58;99828.88;5035021;28;20435;-43
2021/12/10 09:51:45;;;;;;;76.30;41.80;;;;;;;2.65;91.53;99817.38;5034749;28;20456;-46
2021/12/10 09:54:17;;;;;;;75.13;37.77;;;;;;;2.58;91.77;99805.84;5034139;28;20826;-44
2021/12/10 09:56:48;;;;;;;72.07;38.07;;;;;;;2.48;91.64;99811.28;5034518;28;20443;-42
2021/12/10 09:59:16;;;;;;;56.80;32.67;;;;;;;2.55;91.19;99820.19;5034483;28;20920;-42
2021/12/10 10:01:47;;;;;;;58.23;33.50;;;;;;;2.60;90.89;99820.50;5033772;28;20815;-42
2021/12/10 10:04:18;;;;;;;58.97;35.20;;;;;;;2.62;91.20;99818.53;5033783;28;20526;-47
2021/12/10 10:06:49;;;;;;;62.20;32.67;;;;;;;2.60;91.68;99825.75;5034454;28;20432;-42
2021/12/10 10:09:19;;;;;;;64.53;35.60;;;;;;;2.64;91.29;99806.00;5034352;28;20961;-42
2021/12/10 10:11:55;;;;;;;60.87;31.73;;;;;;;2.64;91.45;99811.28;5034079;28;20497;-44
2021/12/10 10:14:23;;;;;;;75.00;35.60;;;;;;;2.68;91.69;99815.22;5033773;28;20834;-44
2021/12/10 10:16:52;;;;;;;58.87;31.03;;;;;;;2.76;91.37;99820.47;5034326;28;20428;-44
2021/12/10 10:19:20;;;;;;;54.03;32.47;;;;;;;2.81;91.53;99817.31;5034101;28;20440;-43
2021/12/10 10:21:50;;;;;;;67.73;34.30;;;;;;;2.81;91.87;99811.25;5034051;28;20440;-43
2021/12/10 10:24:19;;;;;;;61.53;33.07;;;;;;;2.87;91.87;99811.38;5033259;28;20468;-43
2021/12/10 10:26:54;;;;;;;60.83;32.53;;;;;;;2.87;91.87;99807.94;5034163;28;20523;-42
2021/12/10 10:29:26;;;;;;;56.80;32.40;;;;;;;2.99;91.55;99802.09;5034115;28;20428;-42
2021/12/10 10:31:58;;;;;;;50.90;29.73;;;;;;;3.08;91.68;99803.72;5034022;28;20983;-42
2021/12/10 10:34:28;;;;;;;54.03;31.80;;;;;;;3.17;91.80;99802.69;5033292;28;20496;-44
2021/12/10 10:36:56;;;;;;;55.80;32.90;;;;;;;3.21;91.81;99790.00;5033751;28;20451;-42
2021/12/10 10:39:32;;;;;;;55.43;32.50;;;;;;;3.25;91.86;99791.31;5028454;28;20433;-43
2021/12/10 10:42:03;;;;;;;57.80;32.30;;;;;;;3.31;92.09;99793.25;5029288;28;20455;-43
2021/12/10 10:44:52;;;;;;;52.77;29.60;;;;;;;3.31;91.78;99790.63;5032959;28;20472;-42
2021/12/10 10:47:23;;;;;;;55.93;31.87;;;;;;;3.31;91.97;99793.25;5033629;28;20941;-45
2021/12/10 10:49:54;;;;;;;48.53;30.07;;;;;;;3.27;91.96;99784.88;5033848;28;20805;-46
2021/12/10 10:52:28;;;;;;;61.20;31.07;;;;;;;3.27;91.68;99784.03;5033601;28;20452;-44
2021/12/10 10:54:59;;;;;;;50.37;30.40;;;;;;;3.25;91.73;99786.03;5033201;28;20463;-42
2021/12/10 10:57:30;;;;;;;55.33;31.10;;;;;;;3.29;91.91;99782.03;5033517;28;20428;-42
2021/12/10 11:00:02;;;;;;;48.70;30.90;;;;;;;3.31;91.96;99782.72;5033388;28;20437;-45
2021/12/10 11:02:49;;;;;;;49.77;30.37;;;;;;;3.27;91.75;99776.97;5033156;28;20973;-46
2021/12/10 11:05:18;;;;;;;51.60;29.47;;;;;;;3.26;91.57;99772.69;5032898;28;20542;-49
2021/12/10 11:07:49;;;;;;;46.47;28.43;;;;;;;3.21;91.58;99771.56;5033229;28;20433;-46
2021/12/10 11:10:26;;;;;;;57.60;30.30;;;;;;;3.22;92.00;99770.56;5033019;28;20433;-45
2021/12/10 11:12:54;;;;;;;47.23;30.63;;;;;;;3.21;91.95;99775.00;5032052;28;20439;-45
2021/12/10 11:15:22;;;;;;;50.90;29.30;;;;;;;3.20;91.79;99768.09;5032660;28;20460;-45
2021/12/10 11:17:54;;;;;;;51.37;27.40;;;;;;;3.19;91.77;99763.00;5032976;28;20937;-44
2021/12/10 11:20:26;;;;;;;50.27;28.57;;;;;;;3.16;91.94;99764.19;5032929;28;20440;-45
2021/12/10 11:22:56;;;;;;;50.97;28.30;;;;;;;3.17;91.96;99762.34;5032679;28;20436;-45
2021/12/10 11:25:26;;;;;;;57.80;29.63;;;;;;;3.15;91.86;99765.16;5032386;28;21015;-42
2021/12/10 11:28:03;;;;;;;43.70;28.23;;;;;;;3.22;91.91;99760.03;5032923;28;20436;-44
2021/12/10 11:30:31;;;;;;;54.30;30.13;;;;;;;3.26;91.78;99759.50;5032828;28;20452;-44
2021/12/10 11:33:09;;;;;;;43.27;29.77;;;;;;;3.34;91.74;99763.91;5032550;28;20432;-45
2021/12/10 11:35:40;;;;;;;48.47;29.60;;;;;;;3.37;91.87;99758.31;5032270;28;20854;-45
2021/12/10 11:38:14;;;;;;;51.87;30.03;;;;;;;3.50;91.48;99762.97;5029951;28;20433;-48
2021/12/10 11:40:48;;;;;;;53.27;31.13;;;;;;;3.55;91.67;99758.00;5024247;28;20460;-47
2021/12/10 11:43:33;;;;;;;47.90;28.60;;;;;;;3.55;91.65;99761.47;5032418;28;20432;-46
2021/12/10 11:46:26;;;;;;;48.33;28.10;;;;;;;3.55;91.23;99766.75;5032447;28;20476;-45